sensor_id;sensor_type;location;lat;lon;timestamp;P1;durP1;ratioP1;P2;durP2;ratioP2
5077;SDS011;2557;51.390;7.494;2023-07-29T00:02:09;7.33;;;6.80;;
5077;SDS011;2557;51.390;7.494;2023-07-29T00:04:35;7.10;;;6.33;;
5077;SDS011;2557;51.390;7.494;2023-07-29T00:07:01;8.57;;;7.80;;
5077;SDS011;2557;51.390;7.494;2023-07-29T00:09:27;9.03;;;8.03;;
5077;SDS011;2557;51.390;7.494;2023-07-29T00:11:53;8.27;;;7.20;;
5077;SDS011;2557;51.390;7.494;2023-07-29T00:14:19;10.83;;;6.60;;
5077;SDS011;2557;51.390;7.494;2023-07-29T00:16:45;8.07;;;6.20;;
5077;SDS011;2557;51.390;7.494;2023-07-29T00:19:11;8.73;;;6.93;;
5077;SDS011;2557;51.390;7.494;2023-07-29T00:21:37;6.73;;;6.30;;
5077;SDS011;2557;51.390;7.494;2023-07-29T00:24:03;6.87;;;6.27;;
5077;SDS011;2557;51.390;7.494;2023-07-29T00:26:29;6.40;;;5.90;;
5077;SDS011;2557;51.390;7.494;2023-07-29T00:28:56;9.83;;;6.53;;
5077;SDS011;2557;51.390;7.494;2023-07-29T00:31:22;7.10;;;6.40;;
5077;SDS011;2557;51.390;7.494;2023-07-29T00:33:48;7.90;;;7.30;;
5077;SDS011;2557;51.390;7.494;2023-07-29T00:36:14;7.60;;;6.87;;
5077;SDS011;2557;51.390;7.494;2023-07-29T00:38:40;8.80;;;6.53;;
5077;SDS011;2557;51.390;7.494;2023-07-29T00:41:06;10.40;;;7.43;;
5077;SDS011;2557;51.390;7.494;2023-07-29T00:43:32;10.20;;;7.10;;
5077;SDS011;2557;51.390;7.494;2023-07-29T00:45:59;8.23;;;6.50;;
5077;SDS011;2557;51.390;7.494;2023-07-29T00:48:26;9.93;;;6.30;;
5077;SDS011;2557;51.390;7.494;2023-07-29T00:50:52;6.63;;;6.20;;
5077;SDS011;2557;51.390;7.494;2023-07-29T00:53:18;6.27;;;5.80;;
5077;SDS011;2557;51.390;7.494;2023-07-29T00:55:44;10.43;;;6.30;;
5077;SDS011;2557;51.390;7.494;2023-07-29T00:58:10;6.40;;;5.83;;
5077;SDS011;2557;51.390;7.494;2023-07-29T01:00:36;7.43;;;6.73;;
5077;SDS011;2557;51.390;7.494;2023-07-29T01:03:02;6.30;;;5.70;;
5077;SDS011;2557;51.390;7.494;2023-07-29T01:05:30;6.73;;;6.23;;
5077;SDS011;2557;51.390;7.494;2023-07-29T01:08:13;7.03;;;6.43;;
5077;SDS011;2557;51.390;7.494;2023-07-29T01:10:50;6.33;;;5.70;;
5077;SDS011;2557;51.390;7.494;2023-07-29T01:13:19;6.67;;;6.07;;
5077;SDS011;2557;51.390;7.494;2023-07-29T01:18:51;5.67;;;5.23;;
5077;SDS011;2557;51.390;7.494;2023-07-29T01:21:19;6.00;;;5.67;;
5077;SDS011;2557;51.390;7.494;2023-07-29T01:23:46;6.30;;;5.80;;
5077;SDS011;2557;51.390;7.494;2023-07-29T01:26:12;5.67;;;5.27;;
5077;SDS011;2557;51.390;7.494;2023-07-29T01:28:38;5.57;;;5.03;;
5077;SDS011;2557;51.390;7.494;2023-07-29T01:31:12;8.73;;;5.53;;
5077;SDS011;2557;51.390;7.494;2023-07-29T01:33:40;5.93;;;5.53;;
5077;SDS011;2557;51.390;7.494;2023-07-29T01:36:11;5.80;;;5.30;;
5077;SDS011;2557;51.390;7.494;2023-07-29T01:38:40;6.43;;;5.50;;
5077;SDS011;2557;51.390;7.494;2023-07-29T01:41:07;5.20;;;4.80;;
5077;SDS011;2557;51.390;7.494;2023-07-29T01:43:33;5.63;;;4.83;;
5077;SDS011;2557;51.390;7.494;2023-07-29T01:46:04;6.17;;;5.57;;
5077;SDS011;2557;51.390;7.494;2023-07-29T01:48:30;7.63;;;5.47;;
5077;SDS011;2557;51.390;7.494;2023-07-29T01:50:57;6.20;;;5.60;;
5077;SDS011;2557;51.390;7.494;2023-07-29T01:53:23;5.97;;;4.40;;
5077;SDS011;2557;51.390;7.494;2023-07-29T01:55:49;5.43;;;5.03;;
5077;SDS011;2557;51.390;7.494;2023-07-29T01:58:15;5.37;;;4.90;;
5077;SDS011;2557;51.390;7.494;2023-07-29T02:00:41;4.80;;;4.40;;
5077;SDS011;2557;51.390;7.494;2023-07-29T02:03:07;4.93;;;4.50;;
5077;SDS011;2557;51.390;7.494;2023-07-29T02:05:33;4.87;;;4.57;;
5077;SDS011;2557;51.390;7.494;2023-07-29T02:07:59;5.20;;;4.80;;
5077;SDS011;2557;51.390;7.494;2023-07-29T02:10:25;4.53;;;4.23;;
5077;SDS011;2557;51.390;7.494;2023-07-29T02:12:51;5.53;;;4.20;;
5077;SDS011;2557;51.390;7.494;2023-07-29T02:15:17;5.43;;;4.50;;
5077;SDS011;2557;51.390;7.494;2023-07-29T02:17:43;4.47;;;4.17;;
5077;SDS011;2557;51.390;7.494;2023-07-29T02:20:09;4.50;;;4.10;;
5077;SDS011;2557;51.390;7.494;2023-07-29T02:22:36;6.87;;;4.50;;
5077;SDS011;2557;51.390;7.494;2023-07-29T02:25:02;5.40;;;4.90;;
5077;SDS011;2557;51.390;7.494;2023-07-29T02:27:28;4.27;;;3.93;;
5077;SDS011;2557;51.390;7.494;2023-07-29T02:29:54;5.20;;;4.70;;
5077;SDS011;2557;51.390;7.494;2023-07-29T02:32:20;6.57;;;4.17;;
5077;SDS011;2557;51.390;7.494;2023-07-29T02:34:46;6.33;;;3.90;;
5077;SDS011;2557;51.390;7.494;2023-07-29T02:37:12;4.93;;;4.40;;
5077;SDS011;2557;51.390;7.494;2023-07-29T02:39:38;4.00;;;3.80;;
5077;SDS011;2557;51.390;7.494;2023-07-29T02:42:04;4.60;;;4.20;;
5077;SDS011;2557;51.390;7.494;2023-07-29T02:44:30;4.60;;;4.20;;
5077;SDS011;2557;51.390;7.494;2023-07-29T02:46:56;4.10;;;3.80;;
5077;SDS011;2557;51.390;7.494;2023-07-29T02:49:22;4.80;;;4.40;;
5077;SDS011;2557;51.390;7.494;2023-07-29T02:51:48;4.77;;;4.37;;
5077;SDS011;2557;51.390;7.494;2023-07-29T02:54:15;6.87;;;4.80;;
5077;SDS011;2557;51.390;7.494;2023-07-29T02:56:41;4.63;;;4.23;;
5077;SDS011;2557;51.390;7.494;2023-07-29T02:59:07;5.30;;;4.80;;
5077;SDS011;2557;51.390;7.494;2023-07-29T03:01:33;4.67;;;4.27;;
5077;SDS011;2557;51.390;7.494;2023-07-29T03:03:59;5.63;;;4.73;;
5077;SDS011;2557;51.390;7.494;2023-07-29T03:06:25;7.40;;;5.00;;
5077;SDS011;2557;51.390;7.494;2023-07-29T03:08:50;4.50;;;4.17;;
5077;SDS011;2557;51.390;7.494;2023-07-29T03:11:16;5.63;;;5.13;;
5077;SDS011;2557;51.390;7.494;2023-07-29T03:13:43;7.03;;;4.60;;
5077;SDS011;2557;51.390;7.494;2023-07-29T03:16:11;5.87;;;5.13;;
5077;SDS011;2557;51.390;7.494;2023-07-29T03:18:37;5.60;;;5.10;;
5077;SDS011;2557;51.390;7.494;2023-07-29T03:21:04;8.70;;;5.27;;
5077;SDS011;2557;51.390;7.494;2023-07-29T03:23:30;6.57;;;4.93;;
5077;SDS011;2557;51.390;7.494;2023-07-29T03:25:57;8.20;;;5.07;;
5077;SDS011;2557;51.390;7.494;2023-07-29T03:28:27;9.13;;;4.63;;
5077;SDS011;2557;51.390;7.494;2023-07-29T03:30:53;7.90;;;5.43;;
5077;SDS011;2557;51.390;7.494;2023-07-29T03:33:19;10.53;;;5.90;;
5077;SDS011;2557;51.390;7.494;2023-07-29T03:35:45;7.83;;;5.77;;
5077;SDS011;2557;51.390;7.494;2023-07-29T03:38:12;6.83;;;6.10;;
5077;SDS011;2557;51.390;7.494;2023-07-29T03:40:38;6.70;;;6.00;;
5077;SDS011;2557;51.390;7.494;2023-07-29T03:43:04;6.43;;;6.00;;
5077;SDS011;2557;51.390;7.494;2023-07-29T03:45:30;11.03;;;6.00;;
5077;SDS011;2557;51.390;7.494;2023-07-29T03:47:56;11.90;;;6.23;;
5077;SDS011;2557;51.390;7.494;2023-07-29T03:50:22;6.53;;;5.90;;
5077;SDS011;2557;51.390;7.494;2023-07-29T03:52:49;6.77;;;6.10;;
5077;SDS011;2557;51.390;7.494;2023-07-29T03:55:15;7.57;;;6.90;;
5077;SDS011;2557;51.390;7.494;2023-07-29T03:57:41;7.87;;;7.07;;
5077;SDS011;2557;51.390;7.494;2023-07-29T04:00:07;7.20;;;6.60;;
5077;SDS011;2557;51.390;7.494;2023-07-29T04:02:34;8.43;;;6.57;;
5077;SDS011;2557;51.390;7.494;2023-07-29T04:05:04;11.10;;;6.60;;
5077;SDS011;2557;51.390;7.494;2023-07-29T04:07:31;7.50;;;6.97;;
5077;SDS011;2557;51.390;7.494;2023-07-29T04:09:57;9.93;;;7.57;;
5077;SDS011;2557;51.390;7.494;2023-07-29T04:12:23;8.93;;;8.13;;
5077;SDS011;2557;51.390;7.494;2023-07-29T04:14:49;9.67;;;7.83;;
5077;SDS011;2557;51.390;7.494;2023-07-29T04:17:15;8.10;;;7.47;;
5077;SDS011;2557;51.390;7.494;2023-07-29T04:19:41;9.40;;;8.47;;
5077;SDS011;2557;51.390;7.494;2023-07-29T04:22:07;9.13;;;7.90;;
5077;SDS011;2557;51.390;7.494;2023-07-29T04:24:33;11.77;;;8.03;;
5077;SDS011;2557;51.390;7.494;2023-07-29T04:26:59;17.43;;;8.70;;
5077;SDS011;2557;51.390;7.494;2023-07-29T04:29:25;11.77;;;9.27;;
5077;SDS011;2557;51.390;7.494;2023-07-29T04:31:51;9.50;;;8.53;;
5077;SDS011;2557;51.390;7.494;2023-07-29T04:34:18;10.60;;;8.80;;
5077;SDS011;2557;51.390;7.494;2023-07-29T04:36:44;10.40;;;9.43;;
5077;SDS011;2557;51.390;7.494;2023-07-29T04:39:10;13.00;;;10.40;;
5077;SDS011;2557;51.390;7.494;2023-07-29T04:41:36;11.30;;;9.07;;
5077;SDS011;2557;51.390;7.494;2023-07-29T04:44:02;12.00;;;10.80;;
5077;SDS011;2557;51.390;7.494;2023-07-29T04:46:28;13.13;;;11.90;;
5077;SDS011;2557;51.390;7.494;2023-07-29T04:48:54;12.07;;;10.87;;
5077;SDS011;2557;51.390;7.494;2023-07-29T04:51:20;13.73;;;11.20;;
5077;SDS011;2557;51.390;7.494;2023-07-29T04:53:47;11.40;;;10.30;;
5077;SDS011;2557;51.390;7.494;2023-07-29T04:56:13;12.20;;;9.37;;
5077;SDS011;2557;51.390;7.494;2023-07-29T04:58:39;11.20;;;10.10;;
5077;SDS011;2557;51.390;7.494;2023-07-29T05:01:05;10.97;;;9.87;;
5077;SDS011;2557;51.390;7.494;2023-07-29T05:03:31;17.33;;;9.80;;
5077;SDS011;2557;51.390;7.494;2023-07-29T05:05:57;8.80;;;8.00;;
5077;SDS011;2557;51.390;7.494;2023-07-29T05:08:24;8.47;;;7.80;;
5077;SDS011;2557;51.390;7.494;2023-07-29T05:10:50;10.07;;;8.97;;
5077;SDS011;2557;51.390;7.494;2023-07-29T05:13:17;10.70;;;9.60;;
5077;SDS011;2557;51.390;7.494;2023-07-29T05:15:43;12.93;;;11.77;;
5077;SDS011;2557;51.390;7.494;2023-07-29T05:18:09;13.20;;;12.00;;
5077;SDS011;2557;51.390;7.494;2023-07-29T05:20:35;11.83;;;9.90;;
5077;SDS011;2557;51.390;7.494;2023-07-29T05:23:01;12.47;;;11.27;;
5077;SDS011;2557;51.390;7.494;2023-07-29T05:25:28;15.87;;;10.13;;
5077;SDS011;2557;51.390;7.494;2023-07-29T05:27:54;10.70;;;9.70;;
5077;SDS011;2557;51.390;7.494;2023-07-29T05:30:20;12.70;;;9.63;;
5077;SDS011;2557;51.390;7.494;2023-07-29T05:32:46;12.70;;;11.50;;
5077;SDS011;2557;51.390;7.494;2023-07-29T05:35:12;11.97;;;10.97;;
5077;SDS011;2557;51.390;7.494;2023-07-29T05:37:39;12.77;;;11.67;;
5077;SDS011;2557;51.390;7.494;2023-07-29T05:40:05;12.90;;;11.07;;
5077;SDS011;2557;51.390;7.494;2023-07-29T05:42:32;13.30;;;12.10;;
5077;SDS011;2557;51.390;7.494;2023-07-29T05:44:58;13.37;;;12.07;;
5077;SDS011;2557;51.390;7.494;2023-07-29T05:47:24;13.53;;;12.10;;
5077;SDS011;2557;51.390;7.494;2023-07-29T05:49:50;13.37;;;12.07;;
5077;SDS011;2557;51.390;7.494;2023-07-29T05:52:16;15.03;;;13.10;;
5077;SDS011;2557;51.390;7.494;2023-07-29T05:54:42;12.27;;;11.20;;
5077;SDS011;2557;51.390;7.494;2023-07-29T05:57:11;11.80;;;10.80;;
5077;SDS011;2557;51.390;7.494;2023-07-29T05:59:37;15.27;;;11.10;;
5077;SDS011;2557;51.390;7.494;2023-07-29T06:02:03;14.90;;;11.30;;
5077;SDS011;2557;51.390;7.494;2023-07-29T06:04:30;10.57;;;9.67;;
5077;SDS011;2557;51.390;7.494;2023-07-29T06:06:56;11.43;;;10.23;;
5077;SDS011;2557;51.390;7.494;2023-07-29T06:09:22;9.33;;;8.53;;
5077;SDS011;2557;51.390;7.494;2023-07-29T06:11:50;8.13;;;7.53;;
5077;SDS011;2557;51.390;7.494;2023-07-29T06:14:16;11.53;;;8.30;;
5077;SDS011;2557;51.390;7.494;2023-07-29T06:16:42;9.13;;;8.43;;
5077;SDS011;2557;51.390;7.494;2023-07-29T06:19:08;8.80;;;8.00;;
5077;SDS011;2557;51.390;7.494;2023-07-29T06:21:34;9.73;;;9.03;;
5077;SDS011;2557;51.390;7.494;2023-07-29T06:24:01;10.50;;;9.43;;
5077;SDS011;2557;51.390;7.494;2023-07-29T06:26:29;8.50;;;7.70;;
5077;SDS011;2557;51.390;7.494;2023-07-29T06:28:55;9.50;;;7.50;;
5077;SDS011;2557;51.390;7.494;2023-07-29T06:31:21;7.80;;;7.13;;
5077;SDS011;2557;51.390;7.494;2023-07-29T06:33:47;11.93;;;7.67;;
5077;SDS011;2557;51.390;7.494;2023-07-29T06:36:13;7.90;;;7.20;;
5077;SDS011;2557;51.390;7.494;2023-07-29T06:38:39;6.73;;;6.13;;
5077;SDS011;2557;51.390;7.494;2023-07-29T06:41:06;6.53;;;6.03;;
5077;SDS011;2557;51.390;7.494;2023-07-29T06:43:32;5.67;;;5.27;;
5077;SDS011;2557;51.390;7.494;2023-07-29T06:45:58;5.13;;;4.80;;
5077;SDS011;2557;51.390;7.494;2023-07-29T06:48:24;5.00;;;4.70;;
5077;SDS011;2557;51.390;7.494;2023-07-29T06:50:50;5.37;;;4.87;;
5077;SDS011;2557;51.390;7.494;2023-07-29T06:53:17;6.03;;;4.83;;
5077;SDS011;2557;51.390;7.494;2023-07-29T06:55:43;5.70;;;5.10;;
5077;SDS011;2557;51.390;7.494;2023-07-29T06:58:10;6.83;;;3.70;;
5077;SDS011;2557;51.390;7.494;2023-07-29T07:00:36;5.63;;;4.83;;
5077;SDS011;2557;51.390;7.494;2023-07-29T07:03:02;4.13;;;3.83;;
5077;SDS011;2557;51.390;7.494;2023-07-29T07:05:28;3.07;;;2.87;;
5077;SDS011;2557;51.390;7.494;2023-07-29T07:07:54;3.53;;;3.23;;
5077;SDS011;2557;51.390;7.494;2023-07-29T07:10:20;3.80;;;3.13;;
5077;SDS011;2557;51.390;7.494;2023-07-29T07:12:46;5.23;;;3.23;;
5077;SDS011;2557;51.390;7.494;2023-07-29T07:15:12;3.20;;;3.00;;
5077;SDS011;2557;51.390;7.494;2023-07-29T07:17:38;3.93;;;2.93;;
5077;SDS011;2557;51.390;7.494;2023-07-29T07:20:04;3.80;;;2.77;;
5077;SDS011;2557;51.390;7.494;2023-07-29T07:22:31;3.10;;;2.60;;
5077;SDS011;2557;51.390;7.494;2023-07-29T07:24:57;3.63;;;2.97;;
5077;SDS011;2557;51.390;7.494;2023-07-29T07:27:23;2.87;;;2.77;;
5077;SDS011;2557;51.390;7.494;2023-07-29T07:29:49;3.80;;;3.50;;
5077;SDS011;2557;51.390;7.494;2023-07-29T07:32:15;3.00;;;2.70;;
5077;SDS011;2557;51.390;7.494;2023-07-29T07:34:41;3.10;;;2.90;;
5077;SDS011;2557;51.390;7.494;2023-07-29T07:37:06;3.40;;;3.10;;
5077;SDS011;2557;51.390;7.494;2023-07-29T07:39:32;7.73;;;2.83;;
5077;SDS011;2557;51.390;7.494;2023-07-29T07:41:58;3.37;;;2.77;;
5077;SDS011;2557;51.390;7.494;2023-07-29T07:44:24;2.90;;;2.63;;
5077;SDS011;2557;51.390;7.494;2023-07-29T07:46:51;3.37;;;2.70;;
5077;SDS011;2557;51.390;7.494;2023-07-29T07:49:18;5.13;;;2.87;;
5077;SDS011;2557;51.390;7.494;2023-07-29T07:51:44;2.67;;;2.47;;
5077;SDS011;2557;51.390;7.494;2023-07-29T07:54:10;3.97;;;3.10;;
5077;SDS011;2557;51.390;7.494;2023-07-29T07:56:36;3.57;;;2.53;;
5077;SDS011;2557;51.390;7.494;2023-07-29T07:59:02;3.10;;;2.30;;
5077;SDS011;2557;51.390;7.494;2023-07-29T08:01:33;2.67;;;2.57;;
5077;SDS011;2557;51.390;7.494;2023-07-29T08:04:00;2.90;;;2.50;;
5077;SDS011;2557;51.390;7.494;2023-07-29T08:06:25;3.43;;;2.23;;
5077;SDS011;2557;51.390;7.494;2023-07-29T08:08:51;3.93;;;3.17;;
5077;SDS011;2557;51.390;7.494;2023-07-29T08:11:17;2.20;;;2.00;;
5077;SDS011;2557;51.390;7.494;2023-07-29T08:13:43;3.73;;;2.20;;
5077;SDS011;2557;51.390;7.494;2023-07-29T08:16:09;2.53;;;2.33;;
5077;SDS011;2557;51.390;7.494;2023-07-29T08:18:35;2.20;;;2.10;;
5077;SDS011;2557;51.390;7.494;2023-07-29T08:21:02;2.17;;;1.97;;
5077;SDS011;2557;51.390;7.494;2023-07-29T08:23:28;2.20;;;2.10;;
5077;SDS011;2557;51.390;7.494;2023-07-29T08:25:55;38.87;;;3.23;;
5077;SDS011;2557;51.390;7.494;2023-07-29T08:28:25;3.27;;;1.77;;
5077;SDS011;2557;51.390;7.494;2023-07-29T08:30:51;2.30;;;1.93;;
5077;SDS011;2557;51.390;7.494;2023-07-29T08:33:17;1.80;;;1.70;;
5077;SDS011;2557;51.390;7.494;2023-07-29T08:35:43;2.87;;;1.80;;
5077;SDS011;2557;51.390;7.494;2023-07-29T08:38:09;3.30;;;1.97;;
5077;SDS011;2557;51.390;7.494;2023-07-29T08:40:37;2.70;;;1.87;;
5077;SDS011;2557;51.390;7.494;2023-07-29T08:43:04;1.97;;;1.87;;
5077;SDS011;2557;51.390;7.494;2023-07-29T08:45:34;1.97;;;1.87;;
5077;SDS011;2557;51.390;7.494;2023-07-29T08:48:02;2.30;;;1.90;;
5077;SDS011;2557;51.390;7.494;2023-07-29T08:50:29;1.90;;;1.77;;
5077;SDS011;2557;51.390;7.494;2023-07-29T08:52:55;2.70;;;1.80;;
5077;SDS011;2557;51.390;7.494;2023-07-29T08:55:21;2.00;;;1.90;;
5077;SDS011;2557;51.390;7.494;2023-07-29T08:57:47;2.00;;;1.90;;
5077;SDS011;2557;51.390;7.494;2023-07-29T09:00:14;4.80;;;2.10;;
5077;SDS011;2557;51.390;7.494;2023-07-29T09:02:40;1.93;;;1.83;;
5077;SDS011;2557;51.390;7.494;2023-07-29T09:05:06;2.23;;;2.03;;
5077;SDS011;2557;51.390;7.494;2023-07-29T09:07:32;2.00;;;1.90;;
5077;SDS011;2557;51.390;7.494;2023-07-29T09:10:00;4.20;;;2.60;;
5077;SDS011;2557;51.390;7.494;2023-07-29T09:12:25;2.47;;;2.10;;
5077;SDS011;2557;51.390;7.494;2023-07-29T09:14:52;2.20;;;2.10;;
5077;SDS011;2557;51.390;7.494;2023-07-29T09:17:19;2.53;;;2.33;;
5077;SDS011;2557;51.390;7.494;2023-07-29T09:19:50;2.37;;;2.10;;
5077;SDS011;2557;51.390;7.494;2023-07-29T09:22:19;1.87;;;1.77;;
5077;SDS011;2557;51.390;7.494;2023-07-29T09:24:46;1.90;;;1.80;;
5077;SDS011;2557;51.390;7.494;2023-07-29T09:27:25;2.13;;;1.97;;
5077;SDS011;2557;51.390;7.494;2023-07-29T09:29:52;4.23;;;3.83;;
5077;SDS011;2557;51.390;7.494;2023-07-29T09:32:21;2.30;;;2.07;;
5077;SDS011;2557;51.390;7.494;2023-07-29T09:34:47;1.90;;;1.80;;
5077;SDS011;2557;51.390;7.494;2023-07-29T09:37:17;3.53;;;2.67;;
5077;SDS011;2557;51.390;7.494;2023-07-29T09:39:44;3.47;;;1.90;;
5077;SDS011;2557;51.390;7.494;2023-07-29T09:42:20;2.50;;;2.30;;
5077;SDS011;2557;51.390;7.494;2023-07-29T09:44:46;3.77;;;1.70;;
5077;SDS011;2557;51.390;7.494;2023-07-29T09:47:19;2.07;;;1.90;;
5077;SDS011;2557;51.390;7.494;2023-07-29T09:49:46;1.97;;;1.77;;
5077;SDS011;2557;51.390;7.494;2023-07-29T09:52:14;2.47;;;2.30;;
5077;SDS011;2557;51.390;7.494;2023-07-29T09:54:40;2.33;;;1.70;;
5077;SDS011;2557;51.390;7.494;2023-07-29T09:57:07;1.90;;;1.80;;
5077;SDS011;2557;51.390;7.494;2023-07-29T09:59:34;2.13;;;2.03;;
5077;SDS011;2557;51.390;7.494;2023-07-29T10:02:00;2.20;;;1.90;;
5077;SDS011;2557;51.390;7.494;2023-07-29T10:04:26;5.90;;;2.03;;
5077;SDS011;2557;51.390;7.494;2023-07-29T10:06:52;2.30;;;2.10;;
5077;SDS011;2557;51.390;7.494;2023-07-29T10:09:19;2.23;;;1.97;;
5077;SDS011;2557;51.390;7.494;2023-07-29T10:11:46;1.87;;;1.77;;
5077;SDS011;2557;51.390;7.494;2023-07-29T10:14:14;2.73;;;2.50;;
5077;SDS011;2557;51.390;7.494;2023-07-29T10:16:41;5.33;;;2.37;;
5077;SDS011;2557;51.390;7.494;2023-07-29T10:19:10;2.33;;;1.80;;
5077;SDS011;2557;51.390;7.494;2023-07-29T10:21:38;4.07;;;1.80;;
5077;SDS011;2557;51.390;7.494;2023-07-29T10:24:04;2.40;;;2.20;;
5077;SDS011;2557;51.390;7.494;2023-07-29T10:26:31;3.70;;;1.67;;
5077;SDS011;2557;51.390;7.494;2023-07-29T10:28:59;1.70;;;1.60;;
5077;SDS011;2557;51.390;7.494;2023-07-29T10:31:29;2.33;;;1.80;;
5077;SDS011;2557;51.390;7.494;2023-07-29T10:33:56;2.10;;;1.90;;
5077;SDS011;2557;51.390;7.494;2023-07-29T10:36:22;3.83;;;2.33;;
5077;SDS011;2557;51.390;7.494;2023-07-29T10:38:49;1.87;;;1.70;;
5077;SDS011;2557;51.390;7.494;2023-07-29T10:41:15;1.97;;;1.83;;
5077;SDS011;2557;51.390;7.494;2023-07-29T10:43:41;2.13;;;2.03;;
5077;SDS011;2557;51.390;7.494;2023-07-29T10:48:43;2.47;;;2.10;;
5077;SDS011;2557;51.390;7.494;2023-07-29T10:51:22;1.67;;;1.57;;
5077;SDS011;2557;51.390;7.494;2023-07-29T10:53:51;1.70;;;1.60;;
5077;SDS011;2557;51.390;7.494;2023-07-29T10:56:28;1.90;;;1.80;;
5077;SDS011;2557;51.390;7.494;2023-07-29T11:01:42;1.83;;;1.73;;
5077;SDS011;2557;51.390;7.494;2023-07-29T11:12:07;1.70;;;1.60;;
5077;SDS011;2557;51.390;7.494;2023-07-29T11:14:51;2.23;;;1.87;;
5077;SDS011;2557;51.390;7.494;2023-07-29T11:17:17;4.87;;;1.97;;
5077;SDS011;2557;51.390;7.494;2023-07-29T11:19:43;2.27;;;1.80;;
5077;SDS011;2557;51.390;7.494;2023-07-29T11:22:10;1.83;;;1.60;;
5077;SDS011;2557;51.390;7.494;2023-07-29T11:24:37;1.60;;;1.50;;
5077;SDS011;2557;51.390;7.494;2023-07-29T11:27:03;2.30;;;1.90;;
5077;SDS011;2557;51.390;7.494;2023-07-29T11:29:29;2.20;;;2.00;;
5077;SDS011;2557;51.390;7.494;2023-07-29T11:31:55;1.73;;;1.63;;
5077;SDS011;2557;51.390;7.494;2023-07-29T11:34:31;1.67;;;1.57;;
5077;SDS011;2557;51.390;7.494;2023-07-29T11:36:57;2.60;;;1.67;;
5077;SDS011;2557;51.390;7.494;2023-07-29T11:39:23;1.97;;;1.77;;
5077;SDS011;2557;51.390;7.494;2023-07-29T11:41:49;2.57;;;1.53;;
5077;SDS011;2557;51.390;7.494;2023-07-29T11:44:18;1.60;;;1.50;;
5077;SDS011;2557;51.390;7.494;2023-07-29T11:46:44;1.67;;;1.57;;
5077;SDS011;2557;51.390;7.494;2023-07-29T11:49:10;1.73;;;1.60;;
5077;SDS011;2557;51.390;7.494;2023-07-29T11:51:36;1.50;;;1.40;;
5077;SDS011;2557;51.390;7.494;2023-07-29T11:54:02;1.70;;;1.60;;
5077;SDS011;2557;51.390;7.494;2023-07-29T11:56:29;1.70;;;1.60;;
5077;SDS011;2557;51.390;7.494;2023-07-29T11:58:58;1.90;;;1.80;;
5077;SDS011;2557;51.390;7.494;2023-07-29T12:01:24;2.30;;;2.03;;
5077;SDS011;2557;51.390;7.494;2023-07-29T12:03:50;3.30;;;1.97;;
5077;SDS011;2557;51.390;7.494;2023-07-29T12:06:16;2.27;;;2.17;;
5077;SDS011;2557;51.390;7.494;2023-07-29T12:08:43;1.80;;;1.70;;
5077;SDS011;2557;51.390;7.494;2023-07-29T12:11:09;4.87;;;2.00;;
5077;SDS011;2557;51.390;7.494;2023-07-29T12:13:38;2.37;;;2.27;;
5077;SDS011;2557;51.390;7.494;2023-07-29T12:16:04;1.93;;;1.83;;
5077;SDS011;2557;51.390;7.494;2023-07-29T12:18:30;2.20;;;2.00;;
5077;SDS011;2557;51.390;7.494;2023-07-29T12:20:56;2.47;;;2.00;;
5077;SDS011;2557;51.390;7.494;2023-07-29T12:23:25;2.67;;;1.97;;
5077;SDS011;2557;51.390;7.494;2023-07-29T12:25:51;2.03;;;1.93;;
5077;SDS011;2557;51.390;7.494;2023-07-29T12:28:17;2.00;;;1.90;;
5077;SDS011;2557;51.390;7.494;2023-07-29T12:30:43;2.63;;;1.77;;
5077;SDS011;2557;51.390;7.494;2023-07-29T12:33:09;5.00;;;2.30;;
5077;SDS011;2557;51.390;7.494;2023-07-29T12:35:36;2.50;;;2.30;;
5077;SDS011;2557;51.390;7.494;2023-07-29T12:38:02;2.57;;;2.07;;
5077;SDS011;2557;51.390;7.494;2023-07-29T12:40:28;2.30;;;1.80;;
5077;SDS011;2557;51.390;7.494;2023-07-29T12:42:54;2.07;;;1.97;;
5077;SDS011;2557;51.390;7.494;2023-07-29T12:45:20;2.10;;;1.70;;
5077;SDS011;2557;51.390;7.494;2023-07-29T12:47:48;2.00;;;1.90;;
5077;SDS011;2557;51.390;7.494;2023-07-29T12:50:14;2.50;;;2.30;;
5077;SDS011;2557;51.390;7.494;2023-07-29T12:52:40;2.30;;;2.10;;
5077;SDS011;2557;51.390;7.494;2023-07-29T12:55:06;3.47;;;1.97;;
5077;SDS011;2557;51.390;7.494;2023-07-29T12:57:33;2.90;;;2.00;;
5077;SDS011;2557;51.390;7.494;2023-07-29T12:59:59;2.17;;;1.97;;
5077;SDS011;2557;51.390;7.494;2023-07-29T13:02:25;2.57;;;2.37;;
5077;SDS011;2557;51.390;7.494;2023-07-29T13:04:51;2.80;;;2.60;;
5077;SDS011;2557;51.390;7.494;2023-07-29T13:07:17;2.33;;;2.13;;
5077;SDS011;2557;51.390;7.494;2023-07-29T13:09:43;2.37;;;2.20;;
5077;SDS011;2557;51.390;7.494;2023-07-29T13:12:09;9.83;;;2.70;;
5077;SDS011;2557;51.390;7.494;2023-07-29T13:14:35;2.63;;;2.30;;
5077;SDS011;2557;51.390;7.494;2023-07-29T13:17:01;1.83;;;1.73;;
5077;SDS011;2557;51.390;7.494;2023-07-29T13:19:27;2.40;;;2.20;;
5077;SDS011;2557;51.390;7.494;2023-07-29T13:21:53;2.33;;;2.07;;
5077;SDS011;2557;51.390;7.494;2023-07-29T13:24:19;2.90;;;2.13;;
5077;SDS011;2557;51.390;7.494;2023-07-29T13:26:45;2.47;;;2.20;;
5077;SDS011;2557;51.390;7.494;2023-07-29T13:29:11;2.50;;;2.30;;
5077;SDS011;2557;51.390;7.494;2023-07-29T13:31:37;3.00;;;2.43;;
5077;SDS011;2557;51.390;7.494;2023-07-29T13:34:03;2.30;;;2.10;;
5077;SDS011;2557;51.390;7.494;2023-07-29T13:36:29;3.10;;;2.40;;
5077;SDS011;2557;51.390;7.494;2023-07-29T13:38:55;4.40;;;1.90;;
5077;SDS011;2557;51.390;7.494;2023-07-29T13:41:21;2.60;;;2.40;;
5077;SDS011;2557;51.390;7.494;2023-07-29T13:43:47;2.80;;;2.20;;
5077;SDS011;2557;51.390;7.494;2023-07-29T13:46:13;2.20;;;1.80;;
5077;SDS011;2557;51.390;7.494;2023-07-29T13:48:39;2.30;;;2.20;;
5077;SDS011;2557;51.390;7.494;2023-07-29T13:51:05;3.93;;;2.10;;
5077;SDS011;2557;51.390;7.494;2023-07-29T13:53:31;2.37;;;2.27;;
5077;SDS011;2557;51.390;7.494;2023-07-29T13:55:57;2.10;;;2.00;;
5077;SDS011;2557;51.390;7.494;2023-07-29T13:58:23;2.80;;;2.70;;
5077;SDS011;2557;51.390;7.494;2023-07-29T14:00:51;2.10;;;2.00;;
5077;SDS011;2557;51.390;7.494;2023-07-29T14:03:17;2.87;;;2.67;;
5077;SDS011;2557;51.390;7.494;2023-07-29T14:05:43;2.70;;;2.50;;
5077;SDS011;2557;51.390;7.494;2023-07-29T14:08:09;2.90;;;2.60;;
5077;SDS011;2557;51.390;7.494;2023-07-29T14:10:35;2.60;;;2.20;;
5077;SDS011;2557;51.390;7.494;2023-07-29T14:13:01;3.10;;;2.67;;
5077;SDS011;2557;51.390;7.494;2023-07-29T14:15:27;4.67;;;2.50;;
5077;SDS011;2557;51.390;7.494;2023-07-29T14:17:53;2.80;;;2.53;;
5077;SDS011;2557;51.390;7.494;2023-07-29T14:20:19;2.33;;;2.13;;
5077;SDS011;2557;51.390;7.494;2023-07-29T14:22:45;2.60;;;2.40;;
5077;SDS011;2557;51.390;7.494;2023-07-29T14:25:11;2.47;;;2.37;;
5077;SDS011;2557;51.390;7.494;2023-07-29T14:27:38;2.37;;;2.10;;
5077;SDS011;2557;51.390;7.494;2023-07-29T14:30:05;2.50;;;2.40;;
5077;SDS011;2557;51.390;7.494;2023-07-29T14:32:31;3.90;;;2.70;;
5077;SDS011;2557;51.390;7.494;2023-07-29T14:34:57;2.43;;;2.23;;
5077;SDS011;2557;51.390;7.494;2023-07-29T14:37:28;2.63;;;2.33;;
5077;SDS011;2557;51.390;7.494;2023-07-29T14:39:54;5.50;;;2.60;;
5077;SDS011;2557;51.390;7.494;2023-07-29T14:42:20;3.83;;;2.90;;
5077;SDS011;2557;51.390;7.494;2023-07-29T14:44:46;4.50;;;2.33;;
5077;SDS011;2557;51.390;7.494;2023-07-29T14:47:12;2.77;;;2.57;;
5077;SDS011;2557;51.390;7.494;2023-07-29T14:49:38;2.50;;;2.30;;
5077;SDS011;2557;51.390;7.494;2023-07-29T14:52:05;3.07;;;2.87;;
5077;SDS011;2557;51.390;7.494;2023-07-29T14:54:31;4.03;;;2.60;;
5077;SDS011;2557;51.390;7.494;2023-07-29T14:56:57;3.20;;;2.50;;
5077;SDS011;2557;51.390;7.494;2023-07-29T14:59:23;2.70;;;2.50;;
5077;SDS011;2557;51.390;7.494;2023-07-29T15:01:49;2.87;;;2.67;;
5077;SDS011;2557;51.390;7.494;2023-07-29T15:04:15;2.43;;;2.23;;
5077;SDS011;2557;51.390;7.494;2023-07-29T15:06:41;2.50;;;2.30;;
5077;SDS011;2557;51.390;7.494;2023-07-29T15:09:07;2.87;;;2.50;;
5077;SDS011;2557;51.390;7.494;2023-07-29T15:11:34;3.10;;;2.90;;
5077;SDS011;2557;51.390;7.494;2023-07-29T15:14:00;5.40;;;3.33;;
5077;SDS011;2557;51.390;7.494;2023-07-29T15:16:28;3.33;;;3.13;;
5077;SDS011;2557;51.390;7.494;2023-07-29T15:18:54;5.60;;;3.03;;
5077;SDS011;2557;51.390;7.494;2023-07-29T15:21:20;7.10;;;3.87;;
5077;SDS011;2557;51.390;7.494;2023-07-29T15:23:46;7.50;;;4.23;;
5077;SDS011;2557;51.390;7.494;2023-07-29T15:26:12;21.60;;;4.53;;